Time;durP1;ratioP1;P1;durP2;ratioP2;P2;SDS_P1;SDS_P2;PMS_P1;PMS_P2;Temp;Humidity;BMP_temperature;BMP_pressure;BME280_temperature;BME280_humidity;BME280_pressure;Samples;Min_cycle;Max_cycle;Signal;HPM_P1;HPM_P2
2024/03/15 00:00:35;;;;;;;5.10;2.97;;;12.30;99.90;;;;;;4974819;28;20506;-86
2024/03/15 00:03:01;;;;;;;6.60;3.30;;;12.30;99.90;;;;;;4975393;28;20038;-86
2024/03/15 00:05:29;;;;;;;4.22;2.63;;;12.20;99.90;;;;;;4971913;28;20116;-85
2024/03/15 00:07:54;;;;;;;7.32;3.40;;;12.20;99.90;;;;;;4972964;28;20076;-86
2024/03/15 00:10:20;;;;;;;4.45;2.85;;;12.10;99.90;;;;;;4975447;28;20030;-86
2024/03/15 00:12:46;;;;;;;6.63;3.22;;;12.10;99.90;;;;;;4975268;28;20030;-85
2024/03/15 00:15:11;;;;;;;7.20;3.13;;;12.10;99.90;;;;;;4976036;28;20034;-85
2024/03/15 00:17:37;;;;;;;5.80;3.60;;;12.00;99.90;;;;;;4973910;28;20027;-85
2024/03/15 00:20:05;;;;;;;6.40;3.35;;;12.00;99.90;;;;;;4967538;28;20030;-86
2024/03/15 00:22:31;;;;;;;7.82;3.85;;;12.00;99.90;;;;;;4976021;28;20566;-85
2024/03/15 00:24:57;;;;;;;8.15;4.30;;;12.00;99.90;;;;;;4975480;28;20073;-86
2024/03/15 00:27:22;;;;;;;5.22;3.33;;;12.00;99.90;;;;;;4961378;28;20478;-86
2024/03/15 00:29:48;;;;;;;6.85;3.92;;;12.00;99.90;;;;;;4959765;28;20022;-84
2024/03/15 00:32:13;;;;;;;6.60;3.78;;;12.00;99.90;;;;;;4974051;28;20065;-85
2024/03/15 00:34:40;;;;;;;7.72;4.05;;;12.00;99.90;;;;;;4966575;28;20026;-85
2024/03/15 00:37:08;;;;;;;6.57;3.65;;;12.10;99.90;;;;;;4972046;28;20073;-85
2024/03/15 00:39:34;;;;;;;5.07;3.65;;;12.10;99.90;;;;;;4975238;28;20022;-85
2024/03/15 00:41:59;;;;;;;5.05;3.42;;;12.10;99.90;;;;;;4974915;28;20026;-85
2024/03/15 00:44:25;;;;;;;6.88;3.20;;;12.10;99.90;;;;;;4969968;28;20029;-86
2024/03/15 00:46:51;;;;;;;6.40;3.25;;;12.20;99.90;;;;;;4975397;28;20585;-86
2024/03/15 00:49:17;;;;;;;6.30;3.25;;;12.20;99.90;;;;;;4974658;28;20124;-85
2024/03/15 00:51:42;;;;;;;6.20;3.78;;;12.20;99.90;;;;;;4975598;28;20037;-85
2024/03/15 00:54:09;;;;;;;7.57;4.10;;;12.20;99.90;;;;;;4965788;28;20116;-86
2024/03/15 00:56:36;;;;;;;6.75;4.30;;;12.30;99.90;;;;;;4973765;28;20034;-86
2024/03/15 00:59:01;;;;;;;7.05;3.75;;;12.20;99.90;;;;;;4974419;28;20102;-86
2024/03/15 01:01:27;;;;;;;6.45;3.97;;;12.30;99.90;;;;;;4963656;28;20124;-85
2024/03/15 01:03:53;;;;;;;9.38;4.65;;;12.30;99.90;;;;;;4966541;28;20019;-86
2024/03/15 01:06:18;;;;;;;5.45;3.88;;;12.30;99.90;;;;;;4963204;28;20495;-85
2024/03/15 01:08:44;;;;;;;6.78;3.60;;;12.30;99.90;;;;;;4973593;28;20031;-86
2024/03/15 01:11:09;;;;;;;7.53;4.28;;;12.30;99.90;;;;;;4977872;28;20067;-85
2024/03/15 01:13:35;;;;;;;6.97;4.55;;;12.30;99.90;;;;;;4978676;28;20542;-85
2024/03/15 01:16:02;;;;;;;10.63;4.95;;;12.30;99.90;;;;;;4962464;28;20035;-86
2024/03/15 01:18:27;;;;;;;8.32;5.03;;;12.30;99.90;;;;;;4978254;28;20022;-85
2024/03/15 01:20:53;;;;;;;5.63;4.03;;;12.40;99.90;;;;;;4969984;28;20034;-86
2024/03/15 01:23:18;;;;;;;8.95;4.13;;;12.40;99.90;;;;;;4979005;28;20073;-85
2024/03/15 01:25:45;;;;;;;7.15;3.90;;;12.40;99.90;;;;;;4977615;28;20121;-86
2024/03/15 01:28:11;;;;;;;7.53;3.85;;;12.40;99.90;;;;;;4978343;28;20042;-86
2024/03/15 01:30:37;;;;;;;8.75;4.88;;;12.50;99.90;;;;;;4992594;28;20498;-85
2024/03/15 01:33:03;;;;;;;7.80;4.47;;;12.50;99.90;;;;;;4978072;28;20026;-85
2024/03/15 01:35:34;;;;;;;7.95;4.32;;;12.50;99.90;;;;;;4986833;28;20120;-85
2024/03/15 01:38:03;;;;;;;9.65;4.35;;;12.50;99.90;;;;;;4975577;28;20050;-86
2024/03/15 01:40:30;;;;;;;7.03;3.97;;;12.50;99.90;;;;;;4972402;28;20027;-86
2024/03/15 01:42:56;;;;;;;7.45;4.15;;;12.50;99.90;;;;;;4977752;28;20072;-85
2024/03/15 01:45:22;;;;;;;8.43;4.05;;;12.60;99.90;;;;;;4996097;28;20042;-85
2024/03/15 01:47:48;;;;;;;8.40;4.40;;;12.50;99.90;;;;;;4977946;28;20022;-85
2024/03/15 01:50:14;;;;;;;6.70;4.63;;;12.50;99.90;;;;;;4974146;28;20049;-86
2024/03/15 01:52:41;;;;;;;6.00;3.35;;;12.60;99.90;;;;;;4977198;28;20487;-85
2024/03/15 01:55:08;;;;;;;9.23;4.80;;;12.60;99.90;;;;;;4971767;28;20018;-85
2024/03/15 01:57:35;;;;;;;6.50;4.00;;;12.60;99.90;;;;;;4977653;28;20027;-85
2024/03/15 02:00:10;;;;;;;7.38;3.85;;;12.60;99.90;;;;;;4965503;28;20058;-85
2024/03/15 02:02:42;;;;;;;5.07;3.45;;;12.60;99.90;;;;;;4973197;28;20101;-85
2024/03/15 02:05:08;;;;;;;7.95;3.92;;;12.60;99.90;;;;;;4979519;28;20034;-85
2024/03/15 02:07:33;;;;;;;8.82;4.57;;;12.60;99.90;;;;;;4976485;28;20044;-86
2024/03/15 02:10:08;;;;;;;8.45;4.47;;;12.60;99.90;;;;;;4977432;28;20019;-85
2024/03/15 02:12:34;;;;;;;7.50;4.65;;;12.60;99.90;;;;;;4992085;28;20031;-86
2024/03/15 02:15:00;;;;;;;8.95;3.60;;;12.70;99.90;;;;;;4977008;28;20113;-86
2024/03/15 02:17:27;;;;;;;8.38;4.63;;;12.70;99.90;;;;;;4977729;28;20122;-85
2024/03/15 02:19:52;;;;;;;8.80;3.80;;;12.70;99.90;;;;;;4977472;28;20490;-86
2024/03/15 02:22:18;;;;;;;7.55;3.80;;;12.70;99.90;;;;;;4964342;28;20069;-86
2024/03/15 02:24:44;;;;;;;6.75;3.92;;;12.70;99.90;;;;;;4977282;28;20430;-85
2024/03/15 02:27:13;;;;;;;8.60;3.88;;;12.70;99.90;;;;;;4976879;28;20553;-85
2024/03/15 02:29:40;;;;;;;6.50;3.42;;;12.70;99.90;;;;;;4977849;28;20422;-85
2024/03/15 02:32:06;;;;;;;10.15;3.92;;;12.70;99.90;;;;;;4977067;28;20080;-85
2024/03/15 02:34:34;;;;;;;7.32;4.53;;;12.70;99.90;;;;;;4975338;28;20031;-85
2024/03/15 02:37:02;;;;;;;8.82;4.70;;;12.70;99.90;;;;;;4977178;28;20060;-86
2024/03/15 02:39:29;;;;;;;5.80;3.83;;;12.80;99.90;;;;;;4977336;28;20030;-85
2024/03/15 02:41:55;;;;;;;8.30;3.60;;;12.80;99.90;;;;;;4976689;28;20406;-86
2024/03/15 02:44:21;;;;;;;7.50;3.90;;;12.80;99.90;;;;;;4976724;28;20151;-85
2024/03/15 02:46:48;;;;;;;6.97;3.75;;;12.80;99.90;;;;;;4967635;28;20138;-85
2024/03/15 02:49:14;;;;;;;7.53;3.72;;;12.70;99.90;;;;;;4973438;28;20463;-85
2024/03/15 02:51:41;;;;;;;7.18;3.92;;;12.80;99.90;;;;;;4965918;28;20081;-86
2024/03/15 02:54:08;;;;;;;7.68;3.42;;;12.70;99.90;;;;;;4971768;28;20106;-86
2024/03/15 02:56:34;;;;;;;7.13;3.33;;;12.80;99.90;;;;;;4969751;28;20048;-85
2024/03/15 02:58:59;;;;;;;6.75;3.55;;;12.70;99.90;;;;;;4976691;28;20042;-85
2024/03/15 03:01:25;;;;;;;7.97;3.95;;;12.70;99.90;;;;;;4976135;28;20117;-85
2024/03/15 03:03:50;;;;;;;6.30;2.90;;;12.80;99.90;;;;;;4967878;28;20031;-85
2024/03/15 03:06:16;;;;;;;5.57;3.45;;;12.70;99.90;;;;;;4971048;28;20038;-85
2024/03/15 03:08:42;;;;;;;6.25;3.40;;;12.80;99.90;;;;;;4976730;28;20475;-85
2024/03/15 03:11:09;;;;;;;7.93;3.78;;;12.80;99.90;;;;;;4976150;28;20061;-86
2024/03/15 03:13:35;;;;;;;7.65;4.28;;;12.80;99.90;;;;;;4975370;28;20084;-85
2024/03/15 03:16:00;;;;;;;7.88;3.80;;;12.80;99.90;;;;;;4971000;28;20034;-85
2024/03/15 03:18:26;;;;;;;5.32;3.08;;;12.80;99.90;;;;;;4975458;28;20033;-86
2024/03/15 03:20:52;;;;;;;4.20;3.40;;;12.80;99.90;;;;;;4973553;28;20486;-85
2024/03/15 03:23:18;;;;;;;8.00;4.10;;;12.80;99.90;;;;;;4976822;28;20035;-86
2024/03/15 03:25:44;;;;;;;5.15;3.40;;;12.80;99.90;;;;;;4972495;28;20026;-85
2024/03/15 03:28:09;;;;;;;6.70;3.30;;;12.80;99.90;;;;;;4975850;28;20022;-86
2024/03/15 03:30:35;;;;;;;5.72;3.00;;;12.80;99.90;;;;;;4971709;28;20022;-85
2024/03/15 03:33:03;;;;;;;6.55;3.80;;;12.80;99.90;;;;;;4957010;28;20455;-85
2024/03/15 03:35:28;;;;;;;8.85;3.60;;;12.80;99.90;;;;;;4966932;28;20027;-86
2024/03/15 03:37:54;;;;;;;6.38;3.58;;;12.80;99.90;;;;;;4992466;28;20073;-85
2024/03/15 03:40:24;;;;;;;6.45;3.78;;;12.80;99.90;;;;;;4974472;28;20027;-86
2024/03/15 03:42:51;;;;;;;5.13;3.40;;;12.80;99.90;;;;;;4970716;28;20407;-86
2024/03/15 03:45:17;;;;;;;8.02;3.45;;;12.80;99.90;;;;;;4971818;28;20043;-86
2024/03/15 03:47:44;;;;;;;9.00;3.40;;;12.80;99.90;;;;;;4988154;28;20030;-85
2024/03/15 03:50:13;;;;;;;7.78;3.83;;;12.90;99.90;;;;;;4975735;28;20061;-86
2024/03/15 03:52:39;;;;;;;9.70;3.78;;;12.90;99.90;;;;;;4970906;28;20027;-86
2024/03/15 03:55:07;;;;;;;7.63;3.80;;;12.90;99.90;;;;;;4968716;28;20586;-86
2024/03/15 03:57:37;;;;;;;5.55;3.35;;;12.90;99.90;;;;;;4990904;28;20023;-85
2024/03/15 04:00:14;;;;;;;9.75;4.18;;;12.90;99.90;;;;;;4979452;28;20050;-85
2024/03/15 04:02:44;;;;;;;7.88;3.63;;;12.90;99.90;;;;;;4975833;28;20022;-85
2024/03/15 04:05:12;;;;;;;7.82;3.35;;;12.80;99.90;;;;;;4975670;28;20030;-86
2024/03/15 04:07:38;;;;;;;7.50;3.90;;;12.90;99.90;;;;;;4965537;28;20483;-86
2024/03/15 04:10:04;;;;;;;7.30;3.20;;;12.90;99.90;;;;;;4956879;28;20034;-85
2024/03/15 04:12:29;;;;;;;6.93;3.15;;;12.90;99.90;;;;;;4967875;28;20030;-86
2024/03/15 04:14:55;;;;;;;5.95;3.75;;;12.80;99.90;;;;;;4968742;28;20018;-85
2024/03/15 04:17:23;;;;;;;7.53;4.22;;;12.80;99.90;;;;;;4985560;28;20035;-86
2024/03/15 04:19:49;;;;;;;11.90;4.07;;;12.80;99.90;;;;;;4974132;28;20489;-85
2024/03/15 04:22:16;;;;;;;7.90;3.53;;;12.80;99.90;;;;;;4972617;28;20049;-85
2024/03/15 04:24:43;;;;;;;6.30;3.35;;;12.70;99.90;;;;;;4975680;28;20032;-86
2024/03/15 04:27:09;;;;;;;7.05;3.53;;;12.70;99.90;;;;;;4975622;28;20042;-85
2024/03/15 04:29:35;;;;;;;7.47;3.78;;;12.70;99.90;;;;;;4992984;28;20467;-85
2024/03/15 04:32:02;;;;;;;4.43;2.92;;;12.70;99.90;;;;;;4975460;28;20026;-86
2024/03/15 04:34:28;;;;;;;8.82;3.47;;;12.60;99.90;;;;;;4975972;28;20041;-85
2024/03/15 04:36:54;;;;;;;6.18;3.30;;;12.60;99.90;;;;;;4968370;28;20050;-86
2024/03/15 04:39:19;;;;;;;7.25;3.35;;;12.60;99.90;;;;;;4992679;28;20443;-86
2024/03/15 04:41:45;;;;;;;7.70;3.15;;;12.60;99.90;;;;;;4979755;28;20085;-85
2024/03/15 04:44:11;;;;;;;6.43;2.90;;;12.60;99.90;;;;;;4982910;28;20118;-85
2024/03/15 04:46:36;;;;;;;5.50;3.22;;;12.60;99.90;;;;;;4960039;28;20039;-86
2024/03/15 04:49:02;;;;;;;10.95;3.75;;;12.60;99.90;;;;;;4973605;28;20155;-86
2024/03/15 04:51:30;;;;;;;6.80;3.67;;;12.60;99.90;;;;;;4964284;28;20031;-86
2024/03/15 04:53:55;;;;;;;7.20;3.42;;;12.60;99.90;;;;;;4977545;28;20471;-85
2024/03/15 04:56:21;;;;;;;7.40;3.40;;;12.60;99.90;;;;;;4996720;28;20048;-86
2024/03/15 04:58:47;;;;;;;7.00;3.45;;;12.60;99.90;;;;;;4978283;28;20069;-85
2024/03/15 05:01:13;;;;;;;7.45;3.53;;;12.60;99.90;;;;;;4978228;28;20034;-85
2024/03/15 05:03:38;;;;;;;8.93;4.18;;;12.60;99.90;;;;;;4979233;28;20037;-85
2024/03/15 05:06:04;;;;;;;5.28;2.92;;;12.60;99.90;;;;;;4970903;28;20484;-85
2024/03/15 05:08:30;;;;;;;5.97;3.10;;;12.60;99.90;;;;;;4959849;28;20034;-85
2024/03/15 05:10:56;;;;;;;6.80;3.33;;;12.60;99.90;;;;;;4978410;28;20121;-86
2024/03/15 05:13:22;;;;;;;10.05;3.15;;;12.70;99.90;;;;;;4963962;28;20057;-85
2024/03/15 05:15:49;;;;;;;6.82;3.05;;;12.70;99.90;;;;;;4974360;28;20035;-85
2024/03/15 05:18:14;;;;;;;5.38;3.03;;;12.70;99.90;;;;;;4978560;28;20065;-85
2024/03/15 05:20:41;;;;;;;7.03;3.40;;;12.70;99.90;;;;;;4975158;28;20062;-85
2024/03/15 05:23:07;;;;;;;8.45;3.45;;;12.70;99.90;;;;;;4971034;28;20030;-85
2024/03/15 05:25:34;;;;;;;8.13;3.30;;;12.70;99.90;;;;;;4978383;28;20061;-85
2024/03/15 05:28:00;;;;;;;8.02;2.85;;;12.80;99.90;;;;;;4976023;28;20553;-85
2024/03/15 05:30:26;;;;;;;8.18;3.15;;;12.80;99.90;;;;;;4977413;28;20057;-85
2024/03/15 05:32:52;;;;;;;5.13;2.90;;;12.80;99.90;;;;;;4977031;28;20038;-86
2024/03/15 05:35:21;;;;;;;6.78;2.97;;;12.80;99.90;;;;;;4978490;28;20084;-85
2024/03/15 05:37:47;;;;;;;5.70;2.65;;;12.90;99.90;;;;;;4980480;28;20476;-85
2024/03/15 05:40:14;;;;;;;4.57;2.42;;;12.90;99.90;;;;;;4979334;28;20057;-85
2024/03/15 05:42:41;;;;;;;5.60;2.58;;;12.90;99.90;;;;;;4995997;28;20109;-85
2024/03/15 05:45:06;;;;;;;9.05;3.40;;;12.90;99.90;;;;;;4977424;28;20030;-85
2024/03/15 05:47:32;;;;;;;6.20;2.72;;;12.90;99.90;;;;;;4992392;28;20088;-85
2024/03/15 05:49:58;;;;;;;4.90;2.90;;;12.90;99.90;;;;;;4974937;28;20041;-85
2024/03/15 05:52:24;;;;;;;5.22;2.47;;;12.90;99.90;;;;;;4977603;28;20474;-85
2024/03/15 05:54:50;;;;;;;5.32;2.83;;;13.00;99.90;;;;;;4981095;28;20022;-86
2024/03/15 05:57:15;;;;;;;6.60;2.78;;;13.00;99.90;;;;;;4975330;28;20026;-86
2024/03/15 05:59:41;;;;;;;4.57;2.42;;;13.00;99.90;;;;;;4964040;28;20494;-86
2024/03/15 06:02:06;;;;;;;5.80;2.53;;;13.10;99.90;;;;;;4995324;28;20050;-85
2024/03/15 06:04:35;;;;;;;7.05;2.88;;;13.00;99.90;;;;;;4977387;28;20026;-85
2024/03/15 06:07:00;;;;;;;5.20;3.00;;;13.10;99.90;;;;;;4971689;28;20030;-85
2024/03/15 06:09:27;;;;;;;3.95;2.40;;;13.10;99.90;;;;;;4966610;28;20493;-85
2024/03/15 06:11:54;;;;;;;6.00;2.90;;;13.10;99.90;;;;;;4995431;28;20022;-85
2024/03/15 06:14:20;;;;;;;5.45;2.78;;;13.10;99.90;;;;;;4977945;28;20023;-85
2024/03/15 06:16:45;;;;;;;6.63;2.63;;;13.00;99.90;;;;;;4965684;28;20474;-85
2024/03/15 06:19:12;;;;;;;5.65;2.60;;;13.00;99.90;;;;;;4966406;28;20038;-86
2024/03/15 06:21:38;;;;;;;5.53;3.25;;;13.10;99.90;;;;;;4965721;28;20031;-86
2024/03/15 06:24:06;;;;;;;7.22;2.80;;;13.10;99.90;;;;;;4961923;28;20019;-85
2024/03/15 06:26:32;;;;;;;6.53;2.60;;;13.10;99.90;;;;;;4990381;28;20148;-86
2024/03/15 06:28:59;;;;;;;4.68;2.35;;;13.10;99.90;;;;;;4977793;28;20023;-86
2024/03/15 06:31:25;;;;;;;5.82;2.75;;;13.10;99.90;;;;;;4977599;28;20038;-86
2024/03/15 06:33:51;;;;;;;8.40;3.10;;;13.10;99.90;;;;;;4977536;28;20570;-86
2024/03/15 06:36:18;;;;;;;6.55;2.60;;;13.10;99.90;;;;;;4977680;28;20073;-86
2024/03/15 06:41:19;;;;;;;5.95;2.25;;;13.10;99.90;;;;;;4993429;28;20462;-85
2024/03/15 06:43:58;;;;;;;4.72;2.30;;;13.20;99.90;;;;;;4977734;28;20367;-86
2024/03/15 06:46:41;;;;;;;5.35;2.63;;;13.10;99.90;;;;;;4977360;28;20038;-85
2024/03/15 06:49:13;;;;;;;6.60;2.85;;;13.10;99.90;;;;;;4977494;28;20030;-85
2024/03/15 06:54:24;;;;;;;8.30;2.80;;;13.10;99.90;;;;;;4975549;28;20502;-85
2024/03/15 06:56:50;;;;;;;4.82;2.17;;;13.20;99.90;;;;;;4963722;28;20031;-86
2024/03/15 06:59:17;;;;;;;6.07;2.70;;;13.20;99.90;;;;;;4957269;28;20039;-83
2024/03/15 07:01:44;;;;;;;8.90;2.80;;;13.20;99.90;;;;;;4974453;28;20451;-83
2024/03/15 07:04:10;;;;;;;5.57;2.60;;;13.30;99.90;;;;;;4974183;28;20027;-85
2024/03/15 07:06:35;;;;;;;11.10;2.78;;;13.30;99.90;;;;;;4980048;28;20035;-85
2024/03/15 07:09:04;;;;;;;9.30;2.85;;;13.30;99.90;;;;;;4976983;28;20058;-85
2024/03/15 07:11:32;;;;;;;5.82;2.30;;;13.40;99.90;;;;;;4977094;28;20026;-85
2024/03/15 07:13:58;;;;;;;8.55;3.03;;;13.40;99.90;;;;;;4977083;28;20022;-86
2024/03/15 07:16:26;;;;;;;5.18;2.22;;;13.40;99.90;;;;;;4975885;28;20070;-85
2024/03/15 07:18:52;;;;;;;9.00;2.53;;;13.50;99.90;;;;;;4974484;28;20035;-82
2024/03/15 07:21:17;;;;;;;6.50;2.88;;;13.50;99.90;;;;;;4992310;28;20041;-85
2024/03/15 07:23:43;;;;;;;4.70;2.22;;;13.50;99.90;;;;;;4971975;28;20121;-84
2024/03/15 07:26:10;;;;;;;5.03;2.70;;;13.50;99.90;;;;;;4979506;28;20121;-84
2024/03/15 07:28:39;;;;;;;4.25;1.75;;;13.50;99.90;;;;;;4973903;28;20033;-83
2024/03/15 07:31:05;;;;;;;4.30;1.60;;;13.50;99.90;;;;;;4959887;28;20478;-84
2024/03/15 07:33:31;;;;;;;3.83;2.30;;;13.60;99.90;;;;;;4959288;28;20031;-85
2024/03/15 07:36:01;;;;;;;6.78;3.10;;;13.80;99.90;;;;;;4995142;28;20030;-83
2024/03/15 07:38:27;;;;;;;5.10;2.35;;;13.80;99.90;;;;;;4977841;28;20109;-84
2024/03/15 07:40:54;;;;;;;6.15;1.92;;;13.90;99.90;;;;;;4977122;28;20026;-84
2024/03/15 07:43:20;;;;;;;6.25;1.95;;;13.90;99.90;;;;;;4980195;28;20109;-85
2024/03/15 07:45:48;;;;;;;7.30;1.92;;;13.90;99.90;;;;;;4994108;28;20533;-83
2024/03/15 07:48:14;;;;;;;3.35;1.58;;;14.00;99.90;;;;;;4972235;28;20402;-84
2024/03/15 07:50:41;;;;;;;4.75;1.88;;;14.00;99.90;;;;;;4988300;28;20062;-84
2024/03/15 07:53:08;;;;;;;5.40;1.30;;;14.00;99.90;;;;;;4971424;28;20033;-83
2024/03/15 07:55:35;;;;;;;5.60;1.30;;;14.00;99.90;;;;;;4977735;28;20033;-83
2024/03/15 07:58:01;;;;;;;7.10;1.90;;;14.00;99.90;;;;;;4972963;28;20031;-84
2024/03/15 08:00:27;;;;;;;5.72;1.73;;;14.00;99.90;;;;;;4956568;28;20419;-84
2024/03/15 08:02:53;;;;;;;5.32;1.75;;;14.00;99.90;;;;;;4981870;28;20027;-84
2024/03/15 08:05:22;;;;;;;5.70;1.75;;;14.00;99.90;;;;;;4991837;28;20398;-83
2024/03/15 08:07:48;;;;;;;4.70;1.70;;;14.00;99.90;;;;;;4995198;28;20089;-84
2024/03/15 08:10:14;;;;;;;5.47;1.95;;;14.00;99.90;;;;;;4979165;28;20046;-84
2024/03/15 08:12:41;;;;;;;4.95;1.63;;;14.00;99.90;;;;;;4985671;28;20030;-84
2024/03/15 08:15:07;;;;;;;3.90;1.70;;;14.10;99.90;;;;;;4981795;28;20018;-83
2024/03/15 08:17:33;;;;;;;6.70;1.10;;;14.20;99.90;;;;;;4982046;28;20516;-84
2024/03/15 08:19:59;;;;;;;3.58;1.20;;;14.30;99.90;;;;;;4992473;28;20493;-84
2024/03/15 08:22:24;;;;;;;3.95;0.90;;;14.40;99.90;;;;;;4999049;28;20038;-83
2024/03/15 08:24:50;;;;;;;4.80;1.00;;;14.40;99.90;;;;;;4980680;28;20045;-84
2024/03/15 08:27:15;;;;;;;5.45;1.48;;;14.40;99.90;;;;;;4984188;28;20034;-83
2024/03/15 08:29:41;;;;;;;5.95;1.27;;;14.50;99.90;;;;;;5001452;28;20026;-84
2024/03/15 08:32:07;;;;;;;5.10;1.67;;;14.40;99.90;;;;;;5002765;28;20105;-84
2024/03/15 08:34:35;;;;;;;4.25;1.35;;;14.40;99.90;;;;;;4981770;28;20026;-84
2024/03/15 08:37:01;;;;;;;4.63;1.77;;;14.30;99.90;;;;;;4979421;28;20026;-84
2024/03/15 08:39:29;;;;;;;6.40;2.38;;;14.30;99.90;;;;;;4962600;28;20042;-85
2024/03/15 08:41:55;;;;;;;7.57;2.55;;;14.10;99.90;;;;;;4974160;28;20023;-85
2024/03/15 08:44:20;;;;;;;4.65;2.05;;;14.10;99.90;;;;;;4974586;28;20565;-84
2024/03/15 08:46:47;;;;;;;5.75;2.33;;;14.00;99.90;;;;;;4982025;28;20041;-86
2024/03/15 08:49:15;;;;;;;4.60;1.98;;;14.00;99.90;;;;;;4973391;28;20396;-86
2024/03/15 08:51:41;;;;;;;5.18;1.50;;;14.00;99.90;;;;;;4963199;28;20126;-86
2024/03/15 08:54:06;;;;;;;6.20;1.65;;;14.00;99.90;;;;;;4980541;28;20077;-85
2024/03/15 08:56:32;;;;;;;3.92;1.50;;;14.00;99.90;;;;;;4965703;28;20486;-83
2024/03/15 08:58:58;;;;;;;5.20;1.40;;;13.90;99.90;;;;;;4981300;28;20038;-84
2024/03/15 09:01:32;;;;;;;4.32;1.17;;;13.90;99.90;;;;;;4981747;28;20507;-84
2024/03/15 09:03:59;;;;;;;6.28;1.45;;;13.90;99.90;;;;;;4972837;28;20142;-84
2024/03/15 09:06:25;;;;;;;4.22;1.30;;;13.90;99.90;;;;;;4967690;28;20487;-85
2024/03/15 09:08:54;;;;;;;3.67;1.25;;;13.90;99.90;;;;;;4981423;28;20113;-84
2024/03/15 09:11:25;;;;;;;5.85;0.80;;;13.90;99.90;;;;;;4980623;28;20540;-85
2024/03/15 09:13:52;;;;;;;6.03;1.15;;;13.90;99.90;;;;;;4978115;28;20018;-84
2024/03/15 09:16:20;;;;;;;6.55;2.20;;;13.80;99.90;;;;;;4981621;28;20030;-84
2024/03/15 09:18:46;;;;;;;4.70;1.45;;;13.80;99.90;;;;;;4966993;28;20022;-84
2024/03/15 09:21:12;;;;;;;4.35;1.08;;;13.70;99.90;;;;;;4979731;28;20030;-84
2024/03/15 09:23:38;;;;;;;6.85;1.75;;;13.60;99.90;;;;;;4978697;28;20395;-84
2024/03/15 09:26:06;;;;;;;3.55;1.15;;;13.60;99.90;;;;;;4978319;28;20093;-84
2024/03/15 09:28:37;;;;;;;6.10;1.92;;;13.70;99.90;;;;;;4978436;28;20121;-84
2024/03/15 09:31:08;;;;;;;5.00;1.35;;;13.80;99.90;;;;;;4972976;28;20081;-84
2024/03/15 09:33:35;;;;;;;3.90;1.35;;;13.90;99.90;;;;;;4968249;28;20434;-84
2024/03/15 09:36:04;;;;;;;5.85;1.15;;;14.10;99.90;;;;;;4978221;28;20076;-84
2024/03/15 09:38:32;;;;;;;5.28;0.68;;;14.30;99.90;;;;;;4989753;28;20023;-84
2024/03/15 09:40:58;;;;;;;5.72;0.70;;;14.40;99.90;;;;;;4975994;28;20497;-84
2024/03/15 09:43:26;;;;;;;4.00;0.85;;;14.50;99.90;;;;;;4978137;28;20031;-84
2024/03/15 09:45:53;;;;;;;5.20;0.85;;;14.60;99.90;;;;;;4978129;28;20125;-84
2024/03/15 09:48:21;;;;;;;5.63;1.30;;;14.60;99.90;;;;;;4971241;28;20121;-84
2024/03/15 09:50:52;;;;;;;6.90;1.27;;;14.60;99.90;;;;;;4978785;28;20077;-84
2024/03/15 09:53:19;;;;;;;6.78;1.08;;;14.60;99.90;;;;;;4974961;28;20041;-84
2024/03/15 09:55:52;;;;;;;5.03;0.90;;;14.50;99.90;;;;;;4974293;28;20023;-84
2024/03/15 09:58:20;;;;;;;9.93;1.13;;;14.50;99.90;;;;;;4974907;28;20462;-84
2024/03/15 10:00:46;;;;;;;4.90;0.60;;;14.50;99.90;;;;;;4978278;28;20092;-84
2024/03/15 10:03:11;;;;;;;6.13;0.68;;;14.50;99.90;;;;;;4977727;28;20034;-84
2024/03/15 10:05:37;;;;;;;9.38;1.67;;;14.50;99.90;;;;;;4977875;28;20041;-85
2024/03/15 10:08:05;;;;;;;4.70;0.90;;;14.60;99.90;;;;;;4975146;28;20069;-84
2024/03/15 10:10:32;;;;;;;3.72;0.80;;;14.70;99.90;;;;;;4977079;28;20057;-84
2024/03/15 10:12:57;;;;;;;6.72;0.77;;;14.80;99.90;;;;;;4976941;28;20034;-84
2024/03/15 10:15:23;;;;;;;7.50;1.50;;;14.90;99.90;;;;;;4976430;28;20026;-84
2024/03/15 10:17:53;;;;;;;7.82;0.85;;;15.00;99.90;;;;;;4969224;28;20026;-83
2024/03/15 10:20:21;;;;;;;4.75;0.80;;;15.10;99.90;;;;;;4974132;28;20053;-84
2024/03/15 10:22:50;;;;;;;7.80;0.98;;;15.20;99.90;;;;;;4977253;28;20038;-84
2024/03/15 10:25:18;;;;;;;6.40;0.82;;;15.30;99.90;;;;;;4969567;28;20129;-83
2024/03/15 10:27:54;;;;;;;5.95;0.80;;;15.40;99.90;;;;;;4976938;28;20034;-83
2024/03/15 10:30:24;;;;;;;8.85;1.20;;;15.50;99.90;;;;;;4972350;28;20054;-84
2024/03/15 10:32:54;;;;;;;4.72;0.98;;;15.50;99.90;;;;;;4972130;28;20525;-84
2024/03/15 10:35:20;;;;;;;4.30;1.20;;;15.60;99.90;;;;;;4969620;28;20957;-85
2024/03/15 10:37:50;;;;;;;5.60;1.00;;;15.60;99.90;;;;;;4988607;28;20041;-84
2024/03/15 10:40:17;;;;;;;6.75;0.93;;;15.80;99.90;;;;;;4974662;28;20487;-84
2024/03/15 10:42:48;;;;;;;4.47;1.10;;;15.80;99.90;;;;;;4977169;28;20030;-84
2024/03/15 10:45:16;;;;;;;8.63;0.93;;;15.80;99.90;;;;;;4973422;28;20114;-84
2024/03/15 10:47:42;;;;;;;4.13;1.10;;;15.90;99.90;;;;;;4965011;28;20035;-84
2024/03/15 10:50:18;;;;;;;7.40;1.00;;;16.00;99.90;;;;;;4972891;28;20117;-83
2024/03/15 10:52:45;;;;;;;3.97;0.90;;;15.90;99.90;;;;;;4958218;28;20479;-84
2024/03/15 10:55:22;;;;;;;3.70;0.80;;;16.00;99.90;;;;;;4962514;28;20334;-84
2024/03/15 10:57:50;;;;;;;6.00;0.93;;;16.00;99.90;;;;;;4976672;28;20112;-84
2024/03/15 11:00:18;;;;;;;6.45;1.13;;;16.00;99.90;;;;;;4976659;28;20104;-84
2024/03/15 11:02:51;;;;;;;5.18;0.93;;;15.90;99.90;;;;;;4976001;28;20030;-84
2024/03/15 11:05:21;;;;;;;5.18;1.25;;;15.90;99.90;;;;;;4972373;28;20023;-83
2024/03/15 11:07:49;;;;;;;5.13;1.10;;;16.00;99.90;;;;;;4970772;28;20154;-84
2024/03/15 11:10:19;;;;;;;8.50;1.30;;;16.10;99.90;;;;;;4969736;28;20109;-84
2024/03/15 11:12:50;;;;;;;3.83;1.00;;;16.20;99.90;;;;;;4968598;28;20069;-84
2024/03/15 11:15:18;;;;;;;7.53;1.20;;;16.30;99.90;;;;;;4974939;28;20026;-85
2024/03/15 11:17:44;;;;;;;5.43;1.23;;;16.10;99.90;;;;;;4986551;28;20062;-85
2024/03/15 11:20:13;;;;;;;5.15;1.00;;;16.10;99.90;;;;;;4963993;28;20850;-85
2024/03/15 11:22:39;;;;;;;7.57;0.93;;;15.90;99.90;;;;;;4968833;28;20038;-85
2024/03/15 11:25:05;;;;;;;4.88;0.85;;;15.90;99.90;;;;;;4974055;28;20037;-84
2024/03/15 11:27:31;;;;;;;7.00;0.90;;;15.80;99.90;;;;;;4973781;28;20053;-85
2024/03/15 11:29:58;;;;;;;4.65;0.60;;;15.90;99.90;;;;;;4987455;28;20018;-85
2024/03/15 11:32:24;;;;;;;6.90;1.00;;;15.90;99.90;;;;;;4994296;28;20109;-85
2024/03/15 11:34:50;;;;;;;3.80;0.75;;;16.00;99.90;;;;;;4969845;28;20027;-85
2024/03/15 11:37:20;;;;;;;3.58;0.73;;;15.90;99.90;;;;;;4986486;28;20077;-85
2024/03/15 11:40:00;;;;;;;3.33;0.60;;;15.80;99.90;;;;;;4975228;28;20030;-86
2024/03/15 11:42:26;;;;;;;9.98;0.82;;;15.60;99.90;;;;;;4976295;28;20487;-86
2024/03/15 11:44:51;;;;;;;11.35;1.17;;;15.20;99.90;;;;;;4976233;28;20034;-86
2024/03/15 11:47:17;;;;;;;4.78;0.90;;;14.90;99.90;;;;;;4975793;28;20034;-85
2024/03/15 11:49:43;;;;;;;5.07;0.88;;;14.70;99.90;;;;;;4976441;28;20029;-86
2024/03/15 11:52:10;;;;;;;6.43;0.75;;;14.60;99.90;;;;;;4976490;28;20027;-85
2024/03/15 11:54:36;;;;;;;3.35;0.63;;;14.40;99.90;;;;;;4976387;28;20030;-85
2024/03/15 11:57:02;;;;;;;6.07;0.85;;;14.40;99.90;;;;;;4976624;28;20030;-86
2024/03/15 11:59:28;;;;;;;6.75;1.45;;;14.30;99.90;;;;;;4972403;28;20051;-86
2024/03/15 12:01:55;;;;;;;5.05;0.70;;;14.20;99.90;;;;;;4973154;28;20038;-86
2024/03/15 12:04:25;;;;;;;4.60;0.95;;;14.10;99.90;;;;;;4972994;28;20023;-85
2024/03/15 12:06:51;;;;;;;6.38;1.15;;;14.10;99.90;;;;;;4964450;28;20411;-85
2024/03/15 12:09:16;;;;;;;5.18;0.70;;;14.00;99.90;;;;;;4970166;28;20118;-86
2024/03/15 12:11:45;;;;;;;5.53;1.00;;;14.00;99.90;;;;;;4972185;28;20094;-86
2024/03/15 12:14:12;;;;;;;4.25;0.70;;;14.10;99.90;;;;;;4971315;28;20225;-86
2024/03/15 12:16:42;;;;;;;3.65;0.80;;;14.10;99.90;;;;;;4967701;28;20510;-86
2024/03/15 12:19:14;;;;;;;3.25;0.60;;;14.30;99.90;;;;;;4968062;28;20114;-86
2024/03/15 12:21:41;;;;;;;5.00;0.80;;;14.40;99.90;;;;;;4963756;28;20034;-86
2024/03/15 12:24:07;;;;;;;6.03;0.80;;;14.40;99.90;;;;;;4972554;28;20510;-86
2024/03/15 12:26:33;;;;;;;4.13;1.00;;;14.50;99.90;;;;;;4980285;28;20063;-83
2024/03/15 12:28:59;;;;;;;3.92;1.30;;;14.50;99.90;;;;;;4971928;28;20121;-85
2024/03/15 12:31:25;;;;;;;3.88;1.10;;;14.60;99.90;;;;;;4973295;28;20556;-85
2024/03/15 12:33:54;;;;;;;7.30;0.95;;;14.70;99.90;;;;;;4963006;28;20054;-86
2024/03/15 12:36:20;;;;;;;5.47;1.33;;;14.80;99.90;;;;;;4972561;28;20037;-85
2024/03/15 12:38:45;;;;;;;5.20;0.85;;;15.00;99.90;;;;;;4965565;28;20118;-84
2024/03/15 12:41:11;;;;;;;6.07;1.10;;;15.10;99.90;;;;;;4977894;28;20030;-86
2024/03/15 12:43:36;;;;;;;2.58;0.90;;;15.30;99.90;;;;;;4980817;28;20070;-85
2024/03/15 12:46:11;;;;;;;3.75;1.00;;;15.30;99.90;;;;;;4972288;28;20074;-85
2024/03/15 12:48:36;;;;;;;5.97;1.30;;;15.20;99.90;;;;;;4972147;28;20030;-84